createdAt,value
2019-02-23T00:00:06.991Z,1.16
2019-02-23T00:02:35.496Z,1.10
2019-02-23T00:05:03.989Z,1.10
2019-02-23T00:07:32.785Z,1.07
2019-02-23T00:10:01.284Z,0.99
2019-02-23T00:12:29.775Z,0.99
2019-02-23T00:14:58.277Z,0.92
2019-02-23T00:17:26.769Z,0.91
2019-02-23T00:19:55.305Z,0.83
2019-02-23T00:22:23.800Z,0.83
2019-02-23T00:24:52.290Z,0.73
2019-02-23T00:27:20.804Z,0.69
2019-02-23T00:29:49.307Z,0.67
2019-02-23T00:32:17.843Z,0.57
2019-02-23T00:34:46.330Z,0.62
2019-02-23T00:37:14.823Z,0.56
2019-02-23T00:39:43.332Z,0.60
2019-02-23T00:42:11.825Z,0.57
2019-02-23T00:44:40.363Z,0.53
2019-02-23T00:47:08.858Z,0.55
2019-02-23T00:49:37.353Z,0.44
2019-02-23T00:52:05.861Z,0.35
2019-02-23T00:54:34.365Z,0.25
2019-02-23T00:57:02.906Z,0.18
2019-02-23T00:59:31.401Z,0.09
2019-02-23T01:01:59.893Z,0.07
2019-02-23T01:04:28.420Z,0.05
2019-02-23T01:06:56.920Z,-0.02
2019-02-23T01:09:25.476Z,-0.08
2019-02-23T01:11:53.976Z,-0.11
2019-02-23T01:14:22.479Z,-0.13
2019-02-23T01:16:50.982Z,-0.11
2019-02-23T01:19:19.478Z,-0.10
2019-02-23T01:21:48.028Z,-0.05
2019-02-23T01:24:16.536Z,-0.10
2019-02-23T01:26:45.043Z,-0.17
2019-02-23T01:29:13.551Z,-0.18
2019-02-23T01:31:42.068Z,-0.22
2019-02-23T01:34:10.603Z,-0.21
2019-02-23T01:36:39.089Z,-0.32
2019-02-23T01:39:07.586Z,-0.39
2019-02-23T01:41:36.090Z,-0.43
2019-02-23T01:44:04.585Z,-0.51
2019-02-23T01:46:33.117Z,-0.58
2019-02-23T01:49:01.615Z,-0.53
2019-02-23T01:51:30.109Z,-0.53
2019-02-23T01:53:58.618Z,-0.50
2019-02-23T01:56:27.118Z,-0.55
2019-02-23T01:58:55.679Z,-0.55
2019-02-23T02:01:24.193Z,-0.58
2019-02-23T02:03:52.671Z,-0.50
2019-02-23T02:06:21.182Z,-0.56
2019-02-23T02:08:49.676Z,-0.57
2019-02-23T02:11:18.419Z,-0.51
2019-02-23T02:13:46.915Z,-0.53
2019-02-23T02:16:15.417Z,-0.51
2019-02-23T02:18:44.127Z,-0.55
2019-02-23T02:21:12.626Z,-0.58
2019-02-23T02:23:41.166Z,-0.60
2019-02-23T02:26:09.673Z,-0.64
2019-02-23T02:28:38.171Z,-0.62
2019-02-23T02:31:06.689Z,-0.67
2019-02-23T02:33:38.309Z,-0.79
2019-02-23T02:36:06.849Z,-0.79
2019-02-23T02:38:35.349Z,-0.82
2019-02-23T02:41:03.852Z,-0.94
2019-02-23T02:43:32.358Z,-0.95
2019-02-23T02:46:00.862Z,-1.03
2019-02-23T02:48:29.481Z,-1.09
2019-02-23T02:50:57.927Z,-1.17
2019-02-23T02:53:26.424Z,-1.20
2019-02-23T02:55:54.957Z,-1.31
2019-02-23T02:58:23.437Z,-1.46
2019-02-23T03:00:51.944Z,-1.53
2019-02-23T03:03:20.462Z,-1.63
2019-02-23T03:05:48.964Z,-1.79
2019-02-23T03:08:17.460Z,-1.87
2019-02-23T03:10:46.016Z,-2.13
2019-02-23T03:13:14.516Z,-2.25
2019-02-23T03:15:43.030Z,-2.37
2019-02-23T03:18:11.579Z,-2.42
2019-02-23T03:20:40.081Z,-2.48
2019-02-23T03:23:08.585Z,-2.64
2019-02-23T03:25:37.085Z,-2.62
2019-02-23T03:28:05.592Z,-2.62
2019-02-23T03:30:34.145Z,-2.64
2019-02-23T03:33:03.300Z,-2.69
2019-02-23T03:35:31.813Z,-2.66
2019-02-23T03:38:00.329Z,-2.57
2019-02-23T03:40:28.835Z,-2.63
2019-02-23T03:42:57.374Z,-2.74
2019-02-23T03:45:25.880Z,-2.75
2019-02-23T03:47:54.407Z,-2.71
2019-02-23T03:50:22.919Z,-2.67
2019-02-23T03:52:51.419Z,-2.73
2019-02-23T03:55:19.968Z,-2.70
2019-02-23T03:57:48.465Z,-2.79
2019-02-23T04:00:16.963Z,-2.82
2019-02-23T04:02:45.468Z,-2.81
2019-02-23T04:05:13.976Z,-2.83
2019-02-23T04:07:42.531Z,-2.84
2019-02-23T04:10:11.043Z,-2.79
2019-02-23T04:12:39.544Z,-2.89
2019-02-23T04:15:08.150Z,-2.98
2019-02-23T04:17:36.653Z,-2.97
2019-02-23T04:20:07.209Z,-2.92
2019-02-23T04:22:35.711Z,-2.91
2019-02-23T04:25:05.120Z,-2.94
2019-02-23T04:27:33.633Z,-3.03
2019-02-23T04:30:02.134Z,-3.04
2019-02-23T04:32:30.676Z,-3.04
2019-02-23T04:34:59.175Z,-2.98
2019-02-23T04:37:27.675Z,-2.98
2019-02-23T04:39:56.201Z,-3.00
2019-02-23T04:42:24.698Z,-3.13
2019-02-23T04:44:53.244Z,-3.28
2019-02-23T04:47:21.756Z,-3.32
2019-02-23T04:49:53.375Z,-3.29
2019-02-23T04:52:21.903Z,-3.22
2019-02-23T04:54:50.426Z,-3.18
2019-02-23T04:57:19.302Z,-3.21
2019-02-23T04:59:47.802Z,-3.24
2019-02-23T05:02:16.305Z,-3.19
2019-02-23T05:04:44.821Z,-3.15
2019-02-23T05:07:13.327Z,-3.27
2019-02-23T05:09:41.910Z,-3.24
2019-02-23T05:12:10.432Z,-3.18
2019-02-23T05:14:38.938Z,-3.15
2019-02-23T05:17:07.439Z,-3.14
2019-02-23T05:19:35.942Z,-3.19
2019-02-23T05:22:04.487Z,-3.14
2019-02-23T05:24:32.994Z,-3.05
2019-02-23T05:27:01.499Z,-2.96
2019-02-23T05:29:30.014Z,-2.86
2019-02-23T05:31:58.513Z,-2.82
2019-02-23T05:34:27.059Z,-2.84
2019-02-23T05:36:55.557Z,-2.86
2019-02-23T05:39:24.069Z,-2.86
2019-02-23T05:41:52.569Z,-2.89
2019-02-23T05:44:21.063Z,-2.82
2019-02-23T05:46:50.840Z,-2.97
2019-02-23T05:49:19.337Z,-2.94
2019-02-23T05:51:47.842Z,-2.90
2019-02-23T05:54:16.350Z,-2.87
2019-02-23T05:56:44.859Z,-2.79
2019-02-23T05:59:13.403Z,-2.80
2019-02-23T06:01:41.913Z,-2.76
2019-02-23T06:04:10.412Z,-2.65
2019-02-23T06:06:38.928Z,-2.63
2019-02-23T06:09:07.429Z,-2.51
2019-02-23T06:11:35.998Z,-2.31
2019-02-23T06:14:04.511Z,-2.16
2019-02-23T06:16:33.019Z,-2.08
2019-02-23T06:19:01.545Z,-2.00
2019-02-23T06:21:30.054Z,-1.95
2019-02-23T06:23:58.645Z,-2.17
2019-02-23T06:26:27.150Z,-2.34
2019-02-23T06:28:55.651Z,-2.28
2019-02-23T06:31:24.166Z,-2.21
2019-02-23T06:33:52.672Z,-1.93
2019-02-23T06:36:21.215Z,-1.85
2019-02-23T06:38:49.716Z,-1.78
2019-02-23T06:41:18.215Z,-2.03
2019-02-23T06:43:46.732Z,-1.85
2019-02-23T06:46:15.234Z,-1.88
2019-02-23T06:48:43.806Z,-2.04
2019-02-23T06:51:12.303Z,-1.97
2019-02-23T06:53:40.802Z,-1.90
2019-02-23T06:56:09.314Z,-1.99
2019-02-23T06:58:37.812Z,-2.12
2019-02-23T07:01:06.430Z,-2.05
2019-02-23T07:03:34.951Z,-2.22
2019-02-23T07:06:03.463Z,-2.21
2019-02-23T07:08:31.972Z,-2.34
2019-02-23T07:11:00.470Z,-2.15
2019-02-23T07:13:29.019Z,-2.17
2019-02-23T07:15:57.524Z,-2.21
2019-02-23T07:18:26.032Z,-2.37
2019-02-23T07:20:54.555Z,-2.43
2019-02-23T07:23:23.059Z,-2.53
2019-02-23T07:25:51.615Z,-2.41
2019-02-23T07:28:20.122Z,-2.39
2019-02-23T07:30:48.624Z,-2.28
2019-02-23T07:33:29.539Z,-2.23
2019-02-23T07:35:47.369Z,-2.23
2019-02-23T07:38:15.922Z,-2.19
2019-02-23T07:40:44.427Z,-2.02
2019-02-23T07:43:12.952Z,-2.04
2019-02-23T07:45:41.466Z,-2.21
2019-02-23T07:48:09.978Z,-2.22
2019-02-23T07:50:38.526Z,-2.08
2019-02-23T07:53:07.044Z,-2.02
2019-02-23T07:55:35.623Z,-1.85
2019-02-23T07:58:04.143Z,-1.80
2019-02-23T08:00:32.647Z,-1.76
2019-02-23T08:03:01.188Z,-1.77
2019-02-23T08:05:29.688Z,-1.94
2019-02-23T08:07:58.200Z,-2.06
2019-02-23T08:10:26.717Z,-2.16
2019-02-23T08:12:55.218Z,-2.16
2019-02-23T08:15:23.764Z,-2.11
2019-02-23T08:17:52.277Z,-2.12
2019-02-23T08:20:20.777Z,-2.19
2019-02-23T08:22:49.290Z,-2.02
2019-02-23T08:25:17.786Z,-1.98
2019-02-23T08:27:46.337Z,-2.07
2019-02-23T08:30:16.053Z,-1.81
2019-02-23T08:32:44.561Z,-1.80
2019-02-23T08:35:13.084Z,-1.63
2019-02-23T08:37:41.596Z,-1.43
2019-02-23T08:40:12.722Z,-1.22
2019-02-23T08:42:41.246Z,-1.17
2019-02-23T08:45:10.347Z,-1.11
2019-02-23T08:47:38.858Z,-0.89
2019-02-23T08:50:13.203Z,-0.58
2019-02-23T08:52:49.144Z,-0.81
2019-02-23T08:55:11.924Z,-0.77
2019-02-23T08:57:40.479Z,-0.72
2019-02-23T09:00:11.943Z,-0.84
2019-02-23T09:02:40.445Z,-0.86
2019-02-23T09:05:10.444Z,-1.11
2019-02-23T09:07:38.938Z,-1.11
2019-02-23T09:10:10.509Z,-0.88
2019-02-23T09:12:39.077Z,-1.07
2019-02-23T09:15:08.383Z,-1.02
2019-02-23T09:17:36.887Z,-1.01
2019-02-23T09:20:07.700Z,-0.91
2019-02-23T09:22:36.250Z,-0.67
2019-02-23T09:25:06.062Z,-0.75
2019-02-23T09:27:34.574Z,-0.49
2019-02-23T09:30:03.072Z,-0.63
2019-02-23T09:32:31.624Z,-0.33
2019-02-23T09:35:00.325Z,-0.27
2019-02-23T09:37:28.809Z,-0.13
2019-02-23T09:39:57.325Z,-0.29
2019-02-23T09:42:25.839Z,-0.19
2019-02-23T09:44:54.408Z,-0.46
2019-02-23T09:47:22.910Z,-0.46
2019-02-23T09:49:51.420Z,-0.18
2019-02-23T09:52:19.945Z,-0.71
2019-02-23T09:54:48.457Z,-0.89
2019-02-23T09:57:17.010Z,-0.97
2019-02-23T09:59:45.520Z,-0.69
2019-02-23T10:02:14.026Z,0.02
2019-02-23T10:04:42.536Z,0.02
2019-02-23T10:07:11.051Z,0.08
2019-02-23T10:09:39.598Z,0.21
2019-02-23T10:12:08.103Z,0.61
2019-02-23T10:14:36.607Z,0.23
2019-02-23T10:17:05.114Z,0.27
2019-02-23T10:19:33.614Z,0.27
2019-02-23T10:22:02.177Z,0.34
2019-02-23T10:24:30.679Z,-0.19
2019-02-23T10:26:59.183Z,-0.19
2019-02-23T10:29:27.697Z,-0.17
2019-02-23T10:31:56.199Z,0.31
2019-02-23T10:34:26.307Z,0.83
2019-02-23T10:36:54.817Z,0.91
2019-02-23T10:39:23.315Z,0.91
2019-02-23T10:41:51.828Z,1.27
2019-02-23T10:44:20.333Z,1.27
2019-02-23T10:46:48.889Z,1.39
2019-02-23T10:49:18.886Z,1.27
2019-02-23T10:51:47.397Z,0.75
2019-02-23T10:54:15.906Z,0.75
2019-02-23T10:56:44.403Z,0.90
2019-02-23T10:59:12.961Z,0.98
2019-02-23T11:01:41.461Z,1.13
2019-02-23T11:04:09.959Z,1.08
2019-02-23T11:06:38.622Z,0.55
2019-02-23T11:09:08.767Z,0.17
2019-02-23T11:11:37.276Z,0.17
2019-02-23T11:14:05.777Z,1.05
2019-02-23T11:16:34.279Z,1.05
2019-02-23T11:19:04.362Z,1.50
2019-02-23T11:21:32.871Z,1.50
2019-02-23T11:24:01.437Z,1.28
2019-02-23T11:26:29.944Z,1.28
2019-02-23T11:28:58.441Z,1.12
2019-02-23T11:31:26.967Z,1.32
2019-02-23T11:33:55.472Z,1.32
2019-02-23T11:36:24.044Z,1.84
2019-02-23T11:38:52.554Z,1.98
2019-02-23T11:41:21.059Z,0.79
2019-02-23T11:43:49.588Z,1.03
2019-02-23T11:46:18.104Z,1.19
2019-02-23T11:48:46.649Z,1.71
2019-02-23T11:51:15.158Z,2.17
2019-02-23T11:53:54.397Z,2.22
2019-02-23T11:56:13.915Z,2.55
2019-02-23T11:58:42.426Z,2.61
2019-02-23T12:01:10.964Z,2.53
2019-02-23T12:03:39.465Z,2.15
2019-02-23T12:06:07.970Z,1.71
2019-02-23T12:08:36.548Z,1.15
2019-02-23T12:11:05.048Z,1.15
2019-02-23T12:13:33.591Z,1.10
2019-02-23T12:16:02.096Z,1.01
2019-02-23T12:18:30.593Z,0.49
2019-02-23T12:20:59.141Z,0.49
2019-02-23T12:23:27.641Z,0.81
2019-02-23T12:25:56.182Z,0.81
2019-02-23T12:28:24.683Z,0.38
2019-02-23T12:30:53.185Z,1.00
2019-02-23T12:33:21.698Z,1.00
2019-02-23T12:35:50.196Z,1.33
2019-02-23T12:38:18.750Z,1.31
2019-02-23T12:40:47.265Z,1.17
2019-02-23T12:43:15.772Z,0.52
2019-02-23T12:45:44.282Z,0.52
2019-02-23T12:48:12.771Z,0.55
2019-02-23T12:50:41.320Z,0.34
2019-02-23T12:53:09.832Z,0.58
2019-02-23T12:55:38.337Z,1.17
2019-02-23T12:58:06.867Z,1.39
2019-02-23T13:00:35.374Z,1.39
2019-02-23T13:03:03.938Z,1.64
2019-02-23T13:05:32.466Z,0.49
2019-02-23T13:08:00.969Z,0.49
2019-02-23T13:10:29.485Z,0.67
2019-02-23T13:13:07.113Z,0.55
2019-02-23T13:15:38.778Z,0.63
2019-02-23T13:18:33.183Z,0.52
2019-02-23T13:21:10.079Z,0.24
2019-02-23T13:24:00.095Z,0.07
2019-02-23T13:26:56.210Z,0.22
2019-02-23T13:29:44.044Z,0.22
2019-02-23T13:32:41.183Z,0.15
2019-02-23T13:35:25.057Z,0.57
2019-02-23T13:38:13.396Z,0.41
2019-02-23T13:41:12.221Z,0.31
2019-02-23T13:43:46.645Z,0.31
2019-02-23T13:46:18.284Z,0.22
2019-02-23T13:49:05.057Z,-0.05
2019-02-23T13:51:49.007Z,0.35
2019-02-23T13:54:23.332Z,0.62
2019-02-23T13:57:00.957Z,0.62
2019-02-23T13:59:55.168Z,0.62
2019-02-23T14:02:26.797Z,0.37
2019-02-23T14:05:01.414Z,0.33
2019-02-23T14:07:35.840Z,0.48
2019-02-23T14:10:19.779Z,0.53
2019-02-23T14:12:51.411Z,0.92
2019-02-23T14:15:45.863Z,0.53
2019-02-23T14:18:36.893Z,0.51
2019-02-23T14:21:37.499Z,0.44
2019-02-23T14:24:14.925Z,0.46
2019-02-23T14:27:10.880Z,0.34
2019-02-23T14:29:48.127Z,0.21
2019-02-23T14:32:25.723Z,0.36
2019-02-23T14:35:19.987Z,0.09
2019-02-23T14:37:54.992Z,-0.27
2019-02-23T14:40:32.446Z,-0.18
2019-02-23T14:43:21.999Z,0.13
2019-02-23T14:45:59.129Z,0.36
2019-02-23T14:48:55.039Z,0.13
2019-02-23T14:51:34.985Z,0.07
2019-02-23T14:54:21.675Z,0.04
2019-02-23T14:57:26.506Z,0.06
2019-02-23T15:00:04.185Z,0.03
2019-02-23T15:02:54.099Z,-0.59
2019-02-23T15:05:37.634Z,-0.56
2019-02-23T15:08:21.199Z,-0.65
2019-02-23T15:11:01.655Z,-0.82
2019-02-23T15:13:51.175Z,-0.70
2019-02-23T15:16:47.235Z,-0.61
2019-02-23T15:19:30.460Z,-0.57
2019-02-23T15:22:17.055Z,-0.42
2019-02-23T15:24:54.348Z,-0.26
2019-02-23T15:27:34.862Z,-0.32
2019-02-23T15:30:15.043Z,-0.40
2019-02-23T15:33:06.310Z,-0.70
2019-02-23T15:35:56.089Z,-0.89
2019-02-23T15:38:30.467Z,-0.92
2019-02-23T15:41:14.226Z,-0.70
2019-02-23T15:44:05.847Z,-0.74
2019-02-23T15:47:12.294Z,-0.83
2019-02-23T15:49:41.397Z,-0.82
2019-02-23T15:52:10.019Z,-1.14
2019-02-23T15:54:38.554Z,-1.34
2019-02-23T15:57:07.070Z,-1.49
2019-02-23T15:59:35.635Z,-1.73
2019-02-23T16:02:04.249Z,-1.68
2019-02-23T16:04:32.768Z,-1.71
2019-02-23T16:07:01.273Z,-1.70
2019-02-23T16:09:29.795Z,-1.86
2019-02-23T16:11:58.312Z,-1.83
2019-02-23T16:14:26.862Z,-1.92
2019-02-23T16:16:55.390Z,-1.88
2019-02-23T16:19:23.888Z,-1.91
2019-02-23T16:21:53.089Z,-1.98
2019-02-23T16:24:21.703Z,-2.02
2019-02-23T16:26:50.256Z,-2.00
2019-02-23T16:29:18.760Z,-1.93
2019-02-23T16:31:47.279Z,-2.06
2019-02-23T16:34:15.798Z,-2.07
2019-02-23T16:36:44.370Z,-2.08
2019-02-23T16:39:12.916Z,-2.13
2019-02-23T16:41:41.437Z,-2.08
2019-02-23T16:44:09.955Z,-1.96
2019-02-23T16:46:38.521Z,-1.84
2019-02-23T16:49:07.004Z,-1.85
2019-02-23T16:51:35.548Z,-1.87
2019-02-23T16:54:04.069Z,-1.96
2019-02-23T16:56:33.525Z,-1.96
2019-02-23T16:59:02.045Z,-1.98
2019-02-23T17:01:30.582Z,-1.94
2019-02-23T17:03:59.134Z,-1.90
2019-02-23T17:06:27.646Z,-2.02
2019-02-23T17:08:56.205Z,-2.08
2019-02-23T17:11:24.838Z,-2.02
2019-02-23T17:13:53.347Z,-2.04
2019-02-23T17:16:22.055Z,-2.09
2019-02-23T17:18:50.556Z,-2.10
2019-02-23T17:21:19.070Z,-2.17
2019-02-23T17:23:47.627Z,-2.25
2019-02-23T17:26:16.285Z,-2.10
2019-02-23T17:28:44.880Z,-2.15
2019-02-23T17:31:13.378Z,-2.10
2019-02-23T17:33:41.897Z,-2.12
2019-02-23T17:36:10.421Z,-2.13
2019-02-23T17:38:38.948Z,-2.15
2019-02-23T17:41:07.465Z,-2.06
2019-02-23T17:43:35.977Z,-2.24
2019-02-23T17:46:04.484Z,-2.07
2019-02-23T17:51:01.611Z,-2.12
2019-02-23T17:53:30.129Z,-2.13
2019-02-23T17:55:58.648Z,-2.10
2019-02-23T17:58:27.223Z,-2.21
2019-02-23T18:00:56.032Z,-2.20
2019-02-23T18:03:24.592Z,-2.23
2019-02-23T18:05:53.121Z,-2.36
2019-02-23T18:08:21.636Z,-2.49
2019-02-23T18:10:50.198Z,-2.53
2019-02-23T18:13:18.721Z,-2.47
2019-02-23T18:15:47.231Z,-2.56
2019-02-23T18:18:15.828Z,-2.67
2019-02-23T18:20:44.341Z,-2.67
2019-02-23T18:23:12.891Z,-2.68
2019-02-23T18:25:41.407Z,-2.68
2019-02-23T18:28:09.924Z,-2.71
2019-02-23T18:30:38.441Z,-2.70
2019-02-23T18:33:06.957Z,-2.69
2019-02-23T18:35:35.528Z,-2.66
2019-02-23T18:38:04.031Z,-2.71
2019-02-23T18:40:32.553Z,-2.73
2019-02-23T18:43:01.082Z,-2.68
2019-02-23T18:45:29.592Z,-2.60
2019-02-23T18:47:58.167Z,-2.63
2019-02-23T18:50:26.671Z,-2.64
2019-02-23T18:52:55.181Z,-2.59
2019-02-23T18:55:24.052Z,-2.54
2019-02-23T18:57:52.685Z,-2.95
2019-02-23T19:00:24.309Z,-3.28
2019-02-23T19:02:51.475Z,-3.32
2019-02-23T19:05:20.008Z,-3.17
2019-02-23T19:07:48.549Z,-3.22
2019-02-23T19:10:17.066Z,-3.06
2019-02-23T19:12:45.641Z,-3.02
2019-02-23T19:15:14.453Z,-3.05
2019-02-23T19:17:42.972Z,-3.00
2019-02-23T19:20:13.507Z,-3.11
2019-02-23T19:22:42.026Z,-3.37
2019-02-23T19:25:13.297Z,-3.43
2019-02-23T19:27:41.823Z,-3.37
2019-02-23T19:30:14.714Z,-3.30
2019-02-23T19:32:43.232Z,-3.26
2019-02-23T19:35:11.743Z,-3.26
2019-02-23T19:37:40.294Z,-3.28
2019-02-23T19:40:09.709Z,-3.30
2019-02-23T19:42:38.270Z,-3.33
2019-02-23T19:45:09.363Z,-3.37
2019-02-23T19:47:38.701Z,-3.39
2019-02-23T19:50:10.422Z,-3.40
2019-02-23T19:52:38.935Z,-3.48
2019-02-23T19:55:10.553Z,-3.53
2019-02-23T19:57:39.091Z,-3.60
2019-02-23T20:00:09.504Z,-3.52
2019-02-23T20:02:38.437Z,-3.54
2019-02-23T20:05:08.871Z,-3.64
2019-02-23T20:07:37.389Z,-3.72
2019-02-23T20:10:08.879Z,-3.84
2019-02-23T20:12:37.412Z,-3.78
2019-02-23T20:15:08.065Z,-3.83
2019-02-23T20:17:36.584Z,-3.81
2019-02-23T20:20:06.015Z,-3.87
2019-02-23T20:22:34.558Z,-3.86
2019-02-23T20:25:03.095Z,-3.77
2019-02-23T20:27:31.656Z,-3.82
2019-02-23T20:30:00.261Z,-3.79
2019-02-23T20:32:28.780Z,-3.81
2019-02-23T20:34:57.314Z,-3.75
2019-02-23T20:37:25.844Z,-3.81
2019-02-23T20:39:54.417Z,-3.71
2019-02-23T20:42:22.945Z,-3.67
2019-02-23T20:44:51.482Z,-3.64
2019-02-23T20:47:20.028Z,-3.68
2019-02-23T20:49:50.151Z,-3.64
2019-02-23T20:52:18.941Z,-3.66
2019-02-23T20:54:47.555Z,-3.57
2019-02-23T20:57:16.066Z,-3.54
2019-02-23T20:59:44.591Z,-3.51
2019-02-23T21:02:13.088Z,-3.59
2019-02-23T21:04:41.628Z,-3.45
2019-02-23T21:07:10.148Z,-3.38
2019-02-23T21:09:38.744Z,-3.39
2019-02-23T21:12:07.256Z,-3.21
2019-02-23T21:14:35.775Z,-3.23
2019-02-23T21:17:04.322Z,-3.12
2019-02-23T21:19:32.839Z,-3.10
2019-02-23T21:22:01.355Z,-3.02
2019-02-23T21:24:30.014Z,-2.95
2019-02-23T21:26:58.528Z,-2.93
2019-02-23T21:29:27.076Z,-2.90
2019-02-23T21:31:55.595Z,-2.83
2019-02-23T21:34:24.105Z,-2.85
2019-02-23T21:36:52.626Z,-2.78
2019-02-23T21:39:21.133Z,-2.74
2019-02-23T21:41:49.691Z,-2.81
2019-02-23T21:44:18.293Z,-2.75
2019-02-23T21:46:46.806Z,-2.66
2019-02-23T21:49:15.333Z,-2.68
2019-02-23T21:51:43.842Z,-2.59
2019-02-23T21:54:12.404Z,-2.54
2019-02-23T21:56:40.929Z,-2.63
2019-02-23T21:59:09.446Z,-2.58
2019-02-23T22:01:37.934Z,-2.47
2019-02-23T22:04:06.442Z,-2.51
2019-02-23T22:06:35.013Z,-2.53
2019-02-23T22:09:03.520Z,-2.42
2019-02-23T22:11:32.018Z,-2.35
2019-02-23T22:14:00.531Z,-2.34
2019-02-23T22:16:29.044Z,-2.39
2019-02-23T22:18:57.594Z,-2.42
2019-02-23T22:21:26.097Z,-2.41
2019-02-23T22:23:54.606Z,-2.47
2019-02-23T22:26:23.123Z,-2.43
2019-02-23T22:28:51.627Z,-2.52
2019-02-23T22:31:20.180Z,-2.45
2019-02-23T22:33:48.708Z,-2.57
2019-02-23T22:36:17.197Z,-2.55
2019-02-23T22:38:45.756Z,-2.54
2019-02-23T22:41:14.253Z,-2.45
2019-02-23T22:43:42.759Z,-2.56
2019-02-23T22:46:11.277Z,-2.52
2019-02-23T22:48:39.786Z,-2.49
2019-02-23T22:51:08.362Z,-2.56
2019-02-23T22:53:36.875Z,-2.61
2019-02-23T22:56:05.389Z,-2.63
2019-02-23T22:58:33.904Z,-2.72
2019-02-23T23:01:04.013Z,-2.72
2019-02-23T23:03:32.563Z,-2.87
2019-02-23T23:06:01.074Z,-2.89
2019-02-23T23:08:29.583Z,-3.00
2019-02-23T23:10:58.098Z,-2.96
2019-02-23T23:13:26.609Z,-3.10
2019-02-23T23:15:55.181Z,-3.04
2019-02-23T23:18:23.696Z,-3.19
2019-02-23T23:20:52.215Z,-3.26
2019-02-23T23:23:20.735Z,-3.25
2019-02-23T23:25:49.245Z,-3.28
2019-02-23T23:28:17.808Z,-3.37
2019-02-23T23:30:46.325Z,-3.29
2019-02-23T23:33:14.825Z,-3.43
2019-02-23T23:35:43.350Z,-3.54
2019-02-23T23:38:11.860Z,-3.60
2019-02-23T23:40:40.409Z,-3.58
2019-02-23T23:43:08.936Z,-3.60
2019-02-23T23:45:37.454Z,-3.59
2019-02-23T23:48:05.979Z,-3.53
2019-02-23T23:50:34.495Z,-3.53
2019-02-23T23:53:03.049Z,-3.55
2019-02-23T23:55:31.546Z,-3.54
2019-02-23T23:58:00.066Z,-3.62
